Time;durP1;ratioP1;P1;durP2;ratioP2;P2;SDS_P1;SDS_P2;PMS_P1;PMS_P2;Temp;Humidity;BMP_temperature;BMP_pressure;BME280_temperature;BME280_humidity;BME280_pressure;Samples;Min_cycle;Max_cycle;Signal;HPM_P1;HPM_P2
2024/01/19 00:01:39;;;;;;;;;;;0.00;99.90;;;;;;5033519;28;19913;-62
2024/01/19 00:04:05;;;;;;;;;;;0.00;99.90;;;;;;5027903;28;19913;-62
2024/01/19 00:06:30;;;;;;;;;;;0.00;99.90;;;;;;5022281;28;19923;-62
2024/01/19 00:08:57;;;;;;;;;;;0.00;99.90;;;;;;5028152;28;20083;-62
2024/01/19 00:11:23;;;;;;;;;;;0.00;99.90;;;;;;5022364;28;19913;-62
2024/01/19 00:13:48;;;;;;;;;;;0.00;99.90;;;;;;5023164;28;20008;-62
2024/01/19 00:16:14;;;;;;;;;;;0.00;99.90;;;;;;5023131;28;19966;-62
2024/01/19 00:18:39;;;;;;;;;;;0.00;99.90;;;;;;5024731;28;19959;-62
2024/01/19 00:21:05;;;;;;;;;;;-0.10;99.90;;;;;;5027477;28;19970;-62
2024/01/19 00:23:31;;;;;;;;;;;-0.10;99.90;;;;;;5023132;28;19913;-62
2024/01/19 00:25:56;;;;;;;;;;;0.00;99.90;;;;;;5028918;28;19923;-62
2024/01/19 00:28:22;;;;;;;;;;;-0.10;99.90;;;;;;5029571;28;19917;-62
2024/01/19 00:30:47;;;;;;;;;;;-0.10;99.90;;;;;;5021871;28;20377;-62
2024/01/19 00:33:13;;;;;;;;;;;-0.10;99.90;;;;;;5022143;28;20679;-62
2024/01/19 00:35:38;;;;;;;;;;;-0.10;99.90;;;;;;5021920;28;19920;-62
2024/01/19 00:38:04;;;;;;;;;;;-0.10;99.90;;;;;;5022074;28;19956;-62
2024/01/19 00:40:29;;;;;;;;;;;-0.10;99.90;;;;;;5021443;28;20504;-62
2024/01/19 00:42:55;;;;;;;;;;;-0.10;99.90;;;;;;5022229;28;19936;-62
2024/01/19 00:45:20;;;;;;;;;;;-0.10;99.90;;;;;;5046824;28;19967;-62
2024/01/19 00:47:46;;;;;;;;;;;-0.10;99.90;;;;;;5022054;28;19913;-62
2024/01/19 00:50:12;;;;;;;;;;;-0.20;99.90;;;;;;5021666;28;20000;-62
2024/01/19 00:52:38;;;;;;;;;;;-0.20;99.90;;;;;;5021423;28;19910;-62
2024/01/19 00:55:04;;;;;;;;;;;-0.20;99.90;;;;;;5029178;28;19913;-62
2024/01/19 00:57:29;;;;;;;;;;;-0.20;99.90;;;;;;5021507;28;19913;-62
2024/01/19 00:59:55;;;;;;;;;;;-0.20;99.90;;;;;;5021574;28;20314;-62
2024/01/19 01:02:20;;;;;;;;;;;-0.20;99.90;;;;;;5064218;28;19919;-63
2024/01/19 01:04:46;;;;;;;;;;;-0.20;99.90;;;;;;5013793;28;19924;-62
2024/01/19 01:07:11;;;;;;;;;;;-0.20;99.90;;;;;;5070505;28;20019;-62
2024/01/19 01:09:37;;;;;;;;;;;-0.20;99.90;;;;;;5025119;28;19996;-62
2024/01/19 01:12:03;;;;;;;;;;;-0.20;99.90;;;;;;5046106;28;19958;-62
2024/01/19 01:14:29;;;;;;;;;;;-0.20;99.90;;;;;;5021396;28;19921;-63
2024/01/19 01:16:54;;;;;;;;;;;-0.20;99.90;;;;;;5021692;28;20004;-62
2024/01/19 01:19:20;;;;;;;;;;;-0.20;99.90;;;;;;5021487;28;19920;-63
2024/01/19 01:21:45;;;;;;;;;;;-0.30;99.90;;;;;;5020966;28;19924;-62
2024/01/19 01:24:11;;;;;;;;;;;-0.20;99.90;;;;;;5021404;28;20312;-62
2024/01/19 01:26:36;;;;;;;;;;;-0.20;99.90;;;;;;5021292;28;19925;-62
2024/01/19 01:29:02;;;;;;;;;;;-0.30;99.90;;;;;;5021074;28;19956;-62
2024/01/19 01:31:27;;;;;;;;;;;-0.20;99.90;;;;;;5028863;28;19961;-62
2024/01/19 01:33:53;;;;;;;;;;;-0.30;99.90;;;;;;5021431;28;19920;-62
2024/01/19 01:36:18;;;;;;;;;;;-0.30;99.90;;;;;;5092297;28;19920;-62
2024/01/19 01:38:44;;;;;;;;;;;-0.30;99.90;;;;;;5031352;28;19954;-62
2024/01/19 01:41:10;;;;;;;;;;;-0.30;99.90;;;;;;5024327;28;19981;-62
2024/01/19 01:43:36;;;;;;;;;;;-0.30;99.90;;;;;;5024278;28;19958;-62
2024/01/19 01:46:01;;;;;;;;;;;-0.30;99.90;;;;;;5024754;28;19924;-62
2024/01/19 01:48:27;;;;;;;;;;;-0.30;99.90;;;;;;5024174;28;19913;-63
2024/01/19 01:50:54;;;;;;;;;;;-0.30;99.90;;;;;;5024140;28;19968;-62
2024/01/19 01:53:20;;;;;;;;;;;-0.30;99.90;;;;;;5024297;28;19917;-62
2024/01/19 01:55:46;;;;;;;;;;;-0.30;99.90;;;;;;5031976;28;19916;-62
2024/01/19 01:58:12;;;;;;;;;;;-0.40;99.90;;;;;;5031150;27;19950;-62
2024/01/19 02:00:38;;;;;;;;;;;-0.40;99.90;;;;;;5024484;28;19921;-62
2024/01/19 02:03:04;;;;;;;;;;;-0.30;99.90;;;;;;5024311;28;19943;-62
2024/01/19 02:05:29;;;;;;;;;;;-0.30;99.90;;;;;;5023888;28;19931;-62
2024/01/19 02:07:55;;;;;;;;;;;-0.30;99.90;;;;;;5024474;28;19916;-62
2024/01/19 02:10:20;;;;;;;;;;;-0.40;99.90;;;;;;5023893;28;19963;-62
2024/01/19 02:12:46;;;;;;;;;;;-0.40;99.90;;;;;;5023927;28;20299;-62
2024/01/19 02:15:21;;;;;;;;;;;-0.40;99.90;;;;;;5032432;28;20627;-62
2024/01/19 02:17:48;;;;;;;;;;;-0.30;99.90;;;;;;5025437;28;19913;-62
2024/01/19 02:20:13;;;;;;;;;;;-0.30;99.90;;;;;;5031904;28;19982;-62
2024/01/19 02:22:39;;;;;;;;;;;-0.30;99.90;;;;;;5022575;28;19917;-62
2024/01/19 02:25:05;;;;;;;;;;;-0.30;99.90;;;;;;5023946;28;19917;-62
2024/01/19 02:27:32;;;;;;;;;;;-0.30;99.90;;;;;;5091564;28;20056;-62
2024/01/19 02:29:57;;;;;;;;;;;-0.30;99.90;;;;;;5023710;28;20429;-62
2024/01/19 02:32:23;;;;;;;;;;;-0.30;99.90;;;;;;5023106;28;19917;-62
2024/01/19 02:34:48;;;;;;;;;;;-0.30;99.90;;;;;;5023870;28;19913;-62
2024/01/19 02:37:14;;;;;;;;;;;-0.30;99.90;;;;;;5023904;28;19981;-62
2024/01/19 02:39:40;;;;;;;;;;;-0.30;99.90;;;;;;5031426;28;19940;-62
2024/01/19 02:42:06;;;;;;;;;;;-0.30;99.90;;;;;;5023622;28;19963;-62
2024/01/19 02:44:32;;;;;;;;;;;-0.30;99.90;;;;;;5023436;28;19937;-62
2024/01/19 02:46:58;;;;;;;;;;;-0.30;99.90;;;;;;5022178;28;19917;-62
2024/01/19 02:49:23;;;;;;;;;;;-0.30;99.90;;;;;;5023069;28;19913;-62
2024/01/19 02:51:49;;;;;;;;;;;-0.30;99.90;;;;;;5022779;28;19996;-62
2024/01/19 02:54:14;;;;;;;;;;;-0.30;99.90;;;;;;5023134;28;20077;-62
2024/01/19 02:56:40;;;;;;;;;;;-0.30;99.90;;;;;;5022516;28;19920;-62
2024/01/19 02:59:05;;;;;;;;;;;-0.30;99.90;;;;;;5022803;28;20632;-62
2024/01/19 03:01:31;;;;;;;;;;;-0.30;99.90;;;;;;5022224;28;20384;-62
2024/01/19 03:03:57;;;;;;;;;;;-0.30;99.90;;;;;;5022286;28;19960;-62
2024/01/19 03:06:23;;;;;;;;;;;-0.30;99.90;;;;;;5022227;28;19924;-62
2024/01/19 03:08:49;;;;;;;;;;;-0.30;99.90;;;;;;5022362;28;19916;-62
2024/01/19 03:11:15;;;;;;;;;;;-0.40;99.90;;;;;;5069660;28;19936;-62
2024/01/19 03:13:40;;;;;;;;;;;-0.30;99.90;;;;;;5083765;28;19932;-62
2024/01/19 03:16:06;;;;;;;;;;;-0.40;99.90;;;;;;5079875;28;19913;-62
2024/01/19 03:18:31;;;;;;;;;;;-0.40;99.90;;;;;;5018610;28;19910;-62
2024/01/19 03:20:57;;;;;;;;;;;-0.30;99.90;;;;;;5022945;28;19917;-62
2024/01/19 03:23:22;;;;;;;;;;;-0.30;99.90;;;;;;5023182;28;20004;-62
2024/01/19 03:25:48;;;;;;;;;;;-0.30;99.90;;;;;;5023132;28;19924;-62
2024/01/19 03:28:13;;;;;;;;;;;-0.30;99.90;;;;;;5023137;28;20661;-62
2024/01/19 03:30:39;;;;;;;;;;;-0.30;99.90;;;;;;5047588;28;19928;-62
2024/01/19 03:33:05;;;;;;;;;;;-0.30;99.90;;;;;;5023076;28;19913;-62
2024/01/19 03:35:30;;;;;;;;;;;-0.30;99.90;;;;;;5090453;28;19909;-62
2024/01/19 03:37:56;;;;;;;;;;;-0.30;99.90;;;;;;5023112;28;19921;-62
2024/01/19 03:40:21;;;;;;;;;;;-0.30;99.90;;;;;;5022780;28;19920;-62
2024/01/19 03:42:47;;;;;;;;;;;-0.30;99.90;;;;;;5034148;28;19933;-62
2024/01/19 03:45:12;;;;;;;;;;;-0.30;99.90;;;;;;5027623;28;19909;-62
2024/01/19 03:47:38;;;;;;;;;;;-0.30;99.90;;;;;;5022702;28;19932;-62
2024/01/19 03:50:05;;;;;;;;;;;-0.30;99.90;;;;;;5022950;28;20027;-62
2024/01/19 03:52:32;;;;;;;;;;;-0.30;99.90;;;;;;5022053;28;19932;-62
2024/01/19 03:54:57;;;;;;;;;;;-0.30;99.90;;;;;;5022748;28;19913;-62
2024/01/19 03:57:23;;;;;;;;;;;-0.30;99.90;;;;;;5022497;28;19913;-62
2024/01/19 03:59:48;;;;;;;;;;;-0.30;99.90;;;;;;5022534;28;20619;-62
2024/01/19 04:02:14;;;;;;;;;;;-0.30;99.90;;;;;;5022632;28;19917;-62
2024/01/19 04:04:39;;;;;;;;;;;-0.30;99.90;;;;;;5022646;28;19909;-62
2024/01/19 04:07:05;;;;;;;;;;;-0.30;99.90;;;;;;5028642;28;19917;-62
2024/01/19 04:09:31;;;;;;;;;;;-0.30;99.90;;;;;;5031328;28;19928;-62
2024/01/19 04:11:56;;;;;;;;;;;-0.30;99.90;;;;;;5022368;28;19913;-62
2024/01/19 04:14:22;;;;;;;;;;;-0.30;99.90;;;;;;5022381;28;20020;-62
2024/01/19 04:16:47;;;;;;;;;;;-0.30;99.90;;;;;;5017319;28;19916;-62
2024/01/19 04:19:13;;;;;;;;;;;-0.30;99.90;;;;;;5017697;28;20524;-62
2024/01/19 04:21:39;;;;;;;;;;;-0.30;99.90;;;;;;5021401;28;19981;-62
2024/01/19 04:24:04;;;;;;;;;;;-0.30;99.90;;;;;;5021958;28;19917;-62
2024/01/19 04:26:30;;;;;;;;;;;-0.30;99.90;;;;;;5021632;28;19958;-62
2024/01/19 04:28:56;;;;;;;;;;;-0.30;99.90;;;;;;5021851;28;19918;-62
2024/01/19 04:31:21;;;;;;;;;;;-0.30;99.90;;;;;;5021816;28;20026;-62
2024/01/19 04:33:47;;;;;;;;;;;-0.20;99.90;;;;;;5021765;28;19919;-62
2024/01/19 04:36:12;;;;;;;;;;;-0.20;99.90;;;;;;5022122;28;19909;-63
2024/01/19 04:38:38;;;;;;;;;;;-0.20;99.90;;;;;;5082832;28;19921;-62
2024/01/19 04:41:04;;;;;;;;;;;-0.20;99.90;;;;;;5021299;28;20023;-62
2024/01/19 04:43:30;;;;;;;;;;;-0.20;99.90;;;;;;5021190;28;19917;-62
2024/01/19 04:45:55;;;;;;;;;;;-0.20;99.90;;;;;;5021183;28;19978;-62
2024/01/19 04:48:21;;;;;;;;;;;-0.20;99.90;;;;;;5088914;28;19956;-62
2024/01/19 04:50:47;;;;;;;;;;;-0.20;99.90;;;;;;5082533;28;19952;-62
2024/01/19 04:53:12;;;;;;;;;;;-0.20;99.90;;;;;;5036482;28;19912;-62
2024/01/19 04:55:38;;;;;;;;;;;-0.20;99.90;;;;;;5022703;28;19920;-62
2024/01/19 04:58:03;;;;;;;;;;;-0.20;99.90;;;;;;5022045;28;19921;-62
2024/01/19 05:00:29;;;;;;;;;;;-0.20;99.90;;;;;;5021197;28;19983;-62
2024/01/19 05:02:54;;;;;;;;;;;-0.20;99.90;;;;;;5021712;28;19917;-62
2024/01/19 05:05:20;;;;;;;;;;;-0.20;99.90;;;;;;5021677;28;19913;-62
2024/01/19 05:07:45;;;;;;;;;;;-0.20;99.90;;;;;;5021379;28;19996;-62
2024/01/19 05:10:11;;;;;;;;;;;-0.20;99.90;;;;;;5037974;28;19966;-62
2024/01/19 05:12:36;;;;;;;;;;;-0.20;99.90;;;;;;5024611;28;19909;-62
2024/01/19 05:15:02;;;;;;;;;;;-0.20;99.90;;;;;;5024992;28;19909;-62
2024/01/19 05:17:28;;;;;;;;;;;-0.20;99.90;;;;;;5024465;28;20017;-62
2024/01/19 05:19:54;;;;;;;;;;;-0.20;99.90;;;;;;5024745;28;20099;-62
2024/01/19 05:22:19;;;;;;;;;;;-0.20;99.90;;;;;;5084850;28;19913;-62
2024/01/19 05:24:45;;;;;;;;;;;-0.20;99.90;;;;;;5024282;28;19928;-62
2024/01/19 05:27:10;;;;;;;;;;;-0.20;99.90;;;;;;5024942;28;19917;-62
2024/01/19 05:29:37;;;;;;;;;;;-0.20;99.90;;;;;;5024243;28;19920;-62
2024/01/19 05:32:02;;;;;;;;;;;-0.20;99.90;;;;;;5024750;28;19958;-62
2024/01/19 05:34:28;;;;;;;;;;;-0.20;99.90;;;;;;5024475;28;19953;-62
2024/01/19 05:36:55;;;;;;;;;;;-0.20;99.90;;;;;;5024123;28;20214;-62
2024/01/19 05:39:21;;;;;;;;;;;-0.20;99.90;;;;;;5024482;28;19948;-62
2024/01/19 05:41:46;;;;;;;;;;;-0.20;99.90;;;;;;5023950;28;19909;-62
2024/01/19 05:44:12;;;;;;;;;;;-0.20;99.90;;;;;;5024674;28;20069;-62
2024/01/19 05:46:38;;;;;;;;;;;-0.20;99.90;;;;;;5023951;28;19913;-62
2024/01/19 05:49:03;;;;;;;;;;;-0.20;99.90;;;;;;5049966;28;19913;-62
2024/01/19 05:51:29;;;;;;;;;;;-0.10;99.90;;;;;;5023945;28;20021;-62
2024/01/19 05:53:54;;;;;;;;;;;-0.10;99.90;;;;;;5024506;28;20354;-62
2024/01/19 05:56:20;;;;;;;;;;;-0.10;99.90;;;;;;5024709;28;19909;-62
2024/01/19 05:58:45;;;;;;;;;;;-0.10;99.90;;;;;;5091750;28;19955;-62
2024/01/19 06:01:11;;;;;;;;;;;-0.10;99.90;;;;;;5023949;28;19938;-62
2024/01/19 06:03:37;;;;;;;;;;;-0.10;99.90;;;;;;5091535;28;19958;-62
2024/01/19 06:06:03;;;;;;;;;;;-0.10;99.90;;;;;;5024590;28;19936;-63
2024/01/19 06:08:29;;;;;;;;;;;-0.10;99.90;;;;;;5023789;28;19913;-62
2024/01/19 06:10:55;;;;;;;;;;;-0.10;99.90;;;;;;5023893;28;20029;-62
2024/01/19 06:13:20;;;;;;;;;;;-0.10;99.90;;;;;;5070493;28;19909;-62
2024/01/19 06:15:46;;;;;;;;;;;-0.10;99.90;;;;;;5024616;28;20061;-62
2024/01/19 06:18:11;;;;;;;;;;;-0.10;99.90;;;;;;5026480;28;19909;-63
2024/01/19 06:20:43;;;;;;;;;;;-0.10;99.90;;;;;;5023429;28;19936;-62
2024/01/19 06:23:09;;;;;;;;;;;-0.10;99.90;;;;;;5024049;28;19951;-62
2024/01/19 06:25:35;;;;;;;;;;;-0.10;99.90;;;;;;5023571;28;20381;-62
2024/01/19 06:28:00;;;;;;;;;;;-0.10;99.90;;;;;;5023907;28;19927;-62
2024/01/19 06:30:26;;;;;;;;;;;-0.10;99.90;;;;;;5023090;28;20623;-62
2024/01/19 06:32:51;;;;;;;;;;;-0.10;99.90;;;;;;5015572;28;19916;-62
2024/01/19 06:35:17;;;;;;;;;;;-0.10;99.90;;;;;;5023747;28;19953;-63
2024/01/19 06:37:42;;;;;;;;;;;-0.10;99.90;;;;;;5023513;28;19981;-63
2024/01/19 06:40:10;;;;;;;;;;;-0.10;99.90;;;;;;5023684;28;19913;-62
2024/01/19 06:42:36;;;;;;;;;;;-0.10;99.90;;;;;;5023472;28;19910;-62
2024/01/19 06:45:02;;;;;;;;;;;-0.10;99.90;;;;;;5023522;28;19974;-62
2024/01/19 06:47:28;;;;;;;;;;;0.00;99.90;;;;;;5023049;28;19924;-62
2024/01/19 06:49:54;;;;;;;;;;;-0.10;99.90;;;;;;5023369;28;20000;-62
2024/01/19 06:52:19;;;;;;;;;;;-0.10;99.90;;;;;;5023180;28;19913;-62
2024/01/19 06:54:45;;;;;;;;;;;-0.10;99.90;;;;;;5022962;28;20387;-62
2024/01/19 06:57:10;;;;;;;;;;;0.00;99.90;;;;;;5023761;28;19909;-62
2024/01/19 06:59:36;;;;;;;;;;;0.00;99.90;;;;;;5048450;28;19928;-62
2024/01/19 07:02:01;;;;;;;;;;;0.00;99.90;;;;;;5023039;28;19939;-62
2024/01/19 07:04:27;;;;;;;;;;;0.00;99.90;;;;;;5022912;28;20015;-62
2024/01/19 07:06:52;;;;;;;;;;;0.00;99.90;;;;;;5023011;28;19917;-62
2024/01/19 07:09:18;;;;;;;;;;;0.00;99.90;;;;;;5023258;28;19997;-62
2024/01/19 07:11:44;;;;;;;;;;;0.00;99.90;;;;;;5022878;28;19914;-62
2024/01/19 07:14:09;;;;;;;;;;;0.00;99.90;;;;;;5023223;28;19909;-62
2024/01/19 07:16:43;;;;;;;;;;;0.00;99.90;;;;;;5023040;28;20315;-62
2024/01/19 07:19:08;;;;;;;;;;;0.00;99.90;;;;;;5022975;28;19992;-62
2024/01/19 07:21:40;;;;;;;;;;;0.00;99.90;;;;;;5022511;28;19993;-62
2024/01/19 07:24:09;;;;;;;;;;;0.00;99.90;;;;;;5023091;28;19919;-62
2024/01/19 07:26:35;;;;;;;;;;;0.00;99.90;;;;;;5022556;28;20008;-62
2024/01/19 07:29:04;;;;;;;;;;;0.00;99.90;;;;;;5022789;28;19924;-62
2024/01/19 07:31:30;;;;;;;;;;;0.00;99.90;;;;;;5022380;28;19917;-62
2024/01/19 07:33:56;;;;;;;;;;;0.00;99.90;;;;;;5022152;28;20003;-62
2024/01/19 07:36:21;;;;;;;;;;;0.00;99.90;;;;;;5047864;28;20329;-62
2024/01/19 07:38:47;;;;;;;;;;;0.10;99.90;;;;;;5022236;28;19917;-62
2024/01/19 07:41:12;;;;;;;;;;;0.10;99.90;;;;;;5022738;28;19963;-62
2024/01/19 07:43:38;;;;;;;;;;;0.10;99.90;;;;;;5022172;28;19909;-62
2024/01/19 07:46:03;;;;;;;;;;;0.10;99.90;;;;;;5022202;28;19921;-62
2024/01/19 07:48:29;;;;;;;;;;;0.10;99.90;;;;;;5021919;28;19943;-62
2024/01/19 07:50:54;;;;;;;;;;;0.10;99.90;;;;;;5022121;28;20012;-62
2024/01/19 07:53:20;;;;;;;;;;;0.10;99.90;;;;;;5022333;28;19909;-62
2024/01/19 07:55:45;;;;;;;;;;;0.10;99.90;;;;;;5022207;28;19936;-62
2024/01/19 07:58:11;;;;;;;;;;;0.10;99.90;;;;;;5022098;28;19944;-62
2024/01/19 08:00:36;;;;;;;;;;;0.10;99.90;;;;;;5057612;28;20004;-62
2024/01/19 08:03:02;;;;;;;;;;;0.10;99.90;;;;;;5022881;28;19921;-62
2024/01/19 08:05:28;;;;;;;;;;;0.10;99.90;;;;;;5022629;28;19935;-62
2024/01/19 08:07:53;;;;;;;;;;;0.10;99.90;;;;;;5022614;28;20039;-62
2024/01/19 08:10:19;;;;;;;;;;;0.20;99.90;;;;;;5022127;28;20540;-62
2024/01/19 08:12:45;;;;;;;;;;;0.10;99.90;;;;;;5028617;28;19917;-62
2024/01/19 08:15:10;;;;;;;;;;;0.20;99.90;;;;;;5022305;28;19913;-62
2024/01/19 08:17:36;;;;;;;;;;;0.20;99.90;;;;;;5022079;28;19913;-62
2024/01/19 08:20:02;;;;;;;;;;;0.20;99.90;;;;;;5017444;28;20027;-62
2024/01/19 08:22:27;;;;;;;;;;;0.20;99.90;;;;;;5054722;28;19921;-62
2024/01/19 08:24:53;;;;;;;;;;;0.20;99.90;;;;;;5022009;28;20023;-62
2024/01/19 08:27:18;;;;;;;;;;;0.20;99.90;;;;;;5071322;28;20274;-62
2024/01/19 08:29:47;;;;;;;;;;;0.20;99.90;;;;;;5021504;28;20006;-62
2024/01/19 08:32:13;;;;;;;;;;;0.20;99.90;;;;;;5022026;28;19996;-62
2024/01/19 08:34:38;;;;;;;;;;;0.20;99.90;;;;;;5022064;28;20000;-62
2024/01/19 08:37:04;;;;;;;;;;;0.30;99.90;;;;;;5022084;28;19921;-62
2024/01/19 08:39:29;;;;;;;;;;;0.30;99.90;;;;;;5021567;28;19913;-62
2024/01/19 08:41:55;;;;;;;;;;;0.30;99.90;;;;;;5021934;28;19924;-62
2024/01/19 08:44:21;;;;;;;;;;;0.30;99.90;;;;;;5023751;28;19921;-62
2024/01/19 08:46:47;;;;;;;;;;;0.30;99.90;;;;;;5024939;28;19917;-62
2024/01/19 08:49:13;;;;;;;;;;;0.30;99.90;;;;;;5025592;28;19909;-62
2024/01/19 08:51:38;;;;;;;;;;;0.30;99.90;;;;;;5025117;28;19920;-62
2024/01/19 08:54:04;;;;;;;;;;;0.40;99.90;;;;;;5025517;28;20004;-62
2024/01/19 08:56:30;;;;;;;;;;;0.40;99.90;;;;;;5025084;28;20386;-62
2024/01/19 08:58:57;;;;;;;;;;;0.40;99.90;;;;;;5024893;28;19955;-62
2024/01/19 09:01:22;;;;;;;;;;;0.50;99.90;;;;;;5025140;28;19935;-62
2024/01/19 09:03:48;;;;;;;;;;;0.50;99.90;;;;;;5024279;28;20017;-62
2024/01/19 09:06:13;;;;;;;;;;;0.50;99.90;;;;;;5031743;28;20377;-62
2024/01/19 09:08:39;;;;;;;;;;;0.50;99.90;;;;;;5026838;28;19913;-62
2024/01/19 09:11:05;;;;;;;;;;;0.60;99.90;;;;;;5024327;28;20377;-62
2024/01/19 09:13:30;;;;;;;;;;;0.50;99.90;;;;;;5066063;28;20383;-62
2024/01/19 09:15:56;;;;;;;;;;;0.60;99.90;;;;;;5025193;28;20014;-63
2024/01/19 09:18:22;;;;;;;;;;;0.60;99.90;;;;;;5024926;28;20500;-62
2024/01/19 09:20:47;;;;;;;;;;;0.60;99.90;;;;;;5024686;28;19914;-62
2024/01/19 09:23:13;;;;;;;;;;;0.60;99.90;;;;;;5025111;28;19919;-62
2024/01/19 09:25:39;;;;;;;;;;;0.60;99.90;;;;;;5024525;28;19917;-62
2024/01/19 09:28:05;;;;;;;;;;;0.70;99.90;;;;;;5024950;28;19920;-62
2024/01/19 09:30:30;;;;;;;;;;;0.70;99.90;;;;;;5024206;28;19921;-62
2024/01/19 09:32:55;;;;;;;;;;;0.70;99.90;;;;;;5024831;28;20007;-62
2024/01/19 09:35:21;;;;;;;;;;;0.70;99.90;;;;;;5024872;28;19913;-62
2024/01/19 09:37:47;;;;;;;;;;;0.70;99.90;;;;;;5030871;28;19914;-63
2024/01/19 09:40:12;;;;;;;;;;;0.80;99.90;;;;;;5024677;28;19913;-62
2024/01/19 09:42:39;;;;;;;;;;;0.80;99.90;;;;;;5066588;28;19920;-62
2024/01/19 09:45:05;;;;;;;;;;;0.80;99.90;;;;;;5024673;28;19940;-62
2024/01/19 09:47:36;;;;;;;;;;;0.80;99.90;;;;;;5024230;28;19964;-62
2024/01/19 09:50:03;;;;;;;;;;;0.80;99.90;;;;;;5024469;28;19939;-62
2024/01/19 09:52:32;;;;;;;;;;;0.80;99.90;;;;;;5024445;28;20284;-62
2024/01/19 09:54:57;;;;;;;;;;;0.90;99.90;;;;;;5024274;28;20313;-62
2024/01/19 09:57:23;;;;;;;;;;;0.90;99.90;;;;;;5024204;28;19981;-62
2024/01/19 09:59:48;;;;;;;;;;;0.90;99.90;;;;;;5024183;28;19913;-62
2024/01/19 10:02:16;;;;;;;;;;;0.90;99.90;;;;;;5092336;28;19938;-62
2024/01/19 10:04:42;;;;;;;;;;;0.90;99.90;;;;;;5029556;28;19955;-62
2024/01/19 10:07:07;;;;;;;;;;;1.00;99.90;;;;;;5024534;28;19992;-62
2024/01/19 10:09:33;;;;;;;;;;;1.00;99.90;;;;;;5024306;28;19913;-62
2024/01/19 10:11:59;;;;;;;;;;;1.00;99.90;;;;;;5024534;28;20324;-62
2024/01/19 10:14:26;;;;;;;;;;;1.10;99.90;;;;;;5024343;28;19928;-62
2024/01/19 10:16:51;;;;;;;;;;;1.10;99.90;;;;;;5024110;28;19913;-62
2024/01/19 10:19:20;;;;;;;;;;;1.20;99.90;;;;;;5024355;28;19915;-62
2024/01/19 10:21:46;;;;;;;;;;;1.10;99.90;;;;;;5025983;28;19939;-62
2024/01/19 10:24:15;;;;;;;;;;;1.10;99.90;;;;;;5030240;28;20350;-62
2024/01/19 10:26:42;;;;;;;;;;;1.10;99.90;;;;;;5032287;28;19913;-62
2024/01/19 10:29:11;;;;;;;;;;;1.10;99.90;;;;;;5024040;28;19920;-62
2024/01/19 10:31:37;;;;;;;;;;;1.10;99.90;;;;;;5023767;28;19917;-62
2024/01/19 10:34:03;;;;;;;;;;;1.20;99.90;;;;;;5024376;28;19946;-62
2024/01/19 10:36:38;;;;;;;;;;;1.20;99.90;;;;;;5024335;28;20632;-62
2024/01/19 10:39:23;;;;;;;;;;;1.30;99.90;;;;;;5023807;28;20404;-62
2024/01/19 10:41:50;;;;;;;;;;;1.30;99.90;;;;;;5023757;28;19936;-63
2024/01/19 10:44:17;;;;;;;;;;;1.30;99.90;;;;;;5024046;28;19916;-62
2024/01/19 10:46:43;;;;;;;;;;;1.30;99.90;;;;;;5031850;28;20387;-62
2024/01/19 10:49:10;;;;;;;;;;;1.40;99.90;;;;;;5037566;28;20010;-62
2024/01/19 10:51:43;;;;;;;;;;;1.40;99.90;;;;;;5031983;28;19999;-62
2024/01/19 10:54:15;;;;;;;;;;;1.50;99.90;;;;;;5029036;28;19913;-62
2024/01/19 10:56:42;;;;;;;;;;;1.50;99.90;;;;;;5025635;28;19915;-62
2024/01/19 10:59:11;;;;;;;;;;;1.60;99.90;;;;;;5031901;28;20011;-62
2024/01/19 11:01:37;;;;;;;;;;;1.60;99.90;;;;;;5022546;28;20516;-62
2024/01/19 11:04:03;;;;;;;;;;;1.70;99.90;;;;;;5023751;28;19913;-62
2024/01/19 11:06:29;;;;;;;;;;;1.70;99.90;;;;;;5031420;28;19917;-63
2024/01/19 11:08:54;;;;;;;;;;;1.80;99.90;;;;;;5050948;28;19974;-62
2024/01/19 11:11:20;;;;;;;;;;;1.80;99.90;;;;;;5020870;28;19913;-62
2024/01/19 11:13:46;;;;;;;;;;;1.90;99.90;;;;;;5022068;28;19909;-62
2024/01/19 11:16:14;;;;;;;;;;;1.90;99.90;;;;;;5022988;28;19909;-62
2024/01/19 11:18:39;;;;;;;;;;;2.00;99.90;;;;;;5013474;28;20004;-62
2024/01/19 11:21:06;;;;;;;;;;;1.90;99.90;;;;;;5022451;28;20020;-62
2024/01/19 11:23:32;;;;;;;;;;;2.00;99.90;;;;;;5022173;28;19945;-62
2024/01/19 11:26:01;;;;;;;;;;;2.00;99.90;;;;;;5022423;28;20392;-62
2024/01/19 11:28:34;;;;;;;;;;;2.00;99.90;;;;;;5030010;28;19951;-62
2024/01/19 11:31:13;;;;;;;;;;;2.10;99.90;;;;;;4996810;28;19921;-63
2024/01/19 11:33:39;;;;;;;;;;;2.00;99.90;;;;;;5022006;28;19956;-62
2024/01/19 11:36:04;;;;;;;;;;;2.10;99.90;;;;;;5083682;28;20397;-62
2024/01/19 11:38:50;;;;;;;;;;;2.00;99.90;;;;;;5022369;28;19913;-62
2024/01/19 11:41:34;;;;;;;;;;;2.00;99.90;;;;;;5022080;28;19966;-62
2024/01/19 11:44:04;;;;;;;;;;;2.00;99.90;;;;;;4999511;28;20331;-62
2024/01/19 11:46:42;;;;;;;;;;;2.00;99.90;;;;;;5021977;28;20004;-62
2024/01/19 11:49:08;;;;;;;;;;;2.00;99.90;;;;;;5015484;28;19913;-62
2024/01/19 11:51:34;;;;;;;;;;;2.00;99.90;;;;;;5021130;28;19917;-62
2024/01/19 11:54:04;;;;;;;;;;;2.00;99.90;;;;;;5021467;28;19993;-62
2024/01/19 11:56:30;;;;;;;;;;;2.10;99.90;;;;;;5027961;28;19924;-62
2024/01/19 11:58:55;;;;;;;;;;;2.10;99.90;;;;;;5021368;28;20430;-62
2024/01/19 12:01:21;;;;;;;;;;;2.10;99.90;;;;;;5021285;28;19913;-62
2024/01/19 12:03:53;;;;;;;;;;;2.10;99.90;;;;;;5021539;28;19936;-62
2024/01/19 12:06:20;;;;;;;;;;;2.10;99.90;;;;;;5022102;28;20073;-62
2024/01/19 12:08:59;;;;;;;;;;;2.20;99.90;;;;;;5021476;28;20003;-62
2024/01/19 12:11:24;;;;;;;;;;;2.20;99.90;;;;;;5068962;28;20024;-62
2024/01/19 12:13:50;;;;;;;;;;;2.20;99.90;;;;;;5023858;28;20057;-62
2024/01/19 12:16:19;;;;;;;;;;;2.30;99.90;;;;;;5027772;28;19995;-62
2024/01/19 12:18:45;;;;;;;;;;;2.30;99.90;;;;;;5015590;28;20029;-62
2024/01/19 12:21:10;;;;;;;;;;;2.30;99.90;;;;;;5020964;28;20000;-63
2024/01/19 12:23:39;;;;;;;;;;;2.40;99.90;;;;;;5021159;28;20020;-62
2024/01/19 12:26:04;;;;;;;;;;;2.40;99.90;;;;;;5021911;28;19960;-62
2024/01/19 12:28:33;;;;;;;;;;;2.40;99.90;;;;;;5021309;28;19960;-62
2024/01/19 12:30:59;;;;;;;;;;;2.40;99.90;;;;;;5020726;28;19921;-62
2024/01/19 12:33:26;;;;;;;;;;;2.50;99.90;;;;;;5021064;28;19914;-62
2024/01/19 12:36:08;;;;;;;;;;;2.50;99.90;;;;;;5020577;28;19917;-62
2024/01/19 12:38:34;;;;;;;;;;;2.50;99.90;;;;;;5020242;28;19924;-62
2024/01/19 12:41:03;;;;;;;;;;;2.50;99.90;;;;;;5020226;28;20343;-62
2024/01/19 12:43:32;;;;;;;;;;;2.50;99.90;;;;;;5020551;28;19942;-62
2024/01/19 12:46:05;;;;;;;;;;;2.50;99.90;;;;;;5013181;28;19953;-62
2024/01/19 12:48:32;;;;;;;;;;;2.60;99.90;;;;;;5021396;28;19921;-62
2024/01/19 12:50:57;;;;;;;;;;;2.50;99.90;;;;;;5021134;28;19922;-62
2024/01/19 12:53:23;;;;;;;;;;;2.60;99.90;;;;;;5016377;28;20235;-62
2024/01/19 12:55:51;;;;;;;;;;;2.60;99.90;;;;;;5020398;28;19918;-62
2024/01/19 12:58:23;;;;;;;;;;;2.60;99.90;;;;;;5020711;28;19920;-62
2024/01/19 13:00:49;;;;;;;;;;;2.60;99.90;;;;;;5020630;28;19942;-62
2024/01/19 13:03:19;;;;;;;;;;;2.60;99.90;;;;;;5020734;28;19925;-62
2024/01/19 13:05:44;;;;;;;;;;;2.50;99.90;;;;;;5020114;28;19921;-62
2024/01/19 13:08:11;;;;;;;;;;;2.60;99.90;;;;;;5021505;28;19920;-62
2024/01/19 13:10:37;;;;;;;;;;;2.60;99.90;;;;;;5019791;28;20007;-62
2024/01/19 13:13:06;;;;;;;;;;;2.60;99.90;;;;;;5021383;28;20030;-62
2024/01/19 13:15:32;;;;;;;;;;;2.60;99.90;;;;;;5020850;28;19932;-62
2024/01/19 13:18:18;;;;;;;;;;;2.60;99.90;;;;;;5020271;28;19914;-62
2024/01/19 13:20:43;;;;;;;;;;;2.60;99.90;;;;;;5074554;28;20250;-62
2024/01/19 13:23:09;;;;;;;;;;;2.60;99.90;;;;;;5021234;28;19940;-62
2024/01/19 13:25:35;;;;;;;;;;;2.60;99.90;;;;;;5020469;28;19918;-62
2024/01/19 13:28:00;;;;;;;;;;;2.60;99.90;;;;;;5037124;28;20008;-62
2024/01/19 13:30:29;;;;;;;;;;;2.60;99.90;;;;;;5043489;28;20559;-62
2024/01/19 13:32:55;;;;;;;;;;;2.60;99.90;;;;;;5024028;28;19924;-62
2024/01/19 13:35:21;;;;;;;;;;;2.60;99.90;;;;;;5024403;28;19909;-62
2024/01/19 13:37:46;;;;;;;;;;;2.60;99.90;;;;;;5032015;28;19920;-62
2024/01/19 13:40:12;;;;;;;;;;;2.60;99.90;;;;;;5024276;28;19913;-62
2024/01/19 13:42:38;;;;;;;;;;;2.60;99.90;;;;;;5023699;28;19909;-62
2024/01/19 13:45:05;;;;;;;;;;;2.60;99.90;;;;;;5006474;28;19961;-62
2024/01/19 13:47:30;;;;;;;;;;;2.60;99.90;;;;;;5023980;28;20000;-62
2024/01/19 13:49:56;;;;;;;;;;;2.50;99.90;;;;;;5023624;28;19942;-62
2024/01/19 13:52:21;;;;;;;;;;;2.50;99.90;;;;;;5023899;28;19913;-62
2024/01/19 13:54:47;;;;;;;;;;;2.60;99.90;;;;;;5023683;28;19944;-62
2024/01/19 13:57:12;;;;;;;;;;;2.50;99.90;;;;;;5024950;28;19971;-62
2024/01/19 13:59:38;;;;;;;;;;;2.60;99.90;;;;;;5023399;28;19984;-62
2024/01/19 14:02:05;;;;;;;;;;;2.50;99.90;;;;;;5023656;28;19913;-62
2024/01/19 14:04:30;;;;;;;;;;;2.60;99.90;;;;;;5023703;28;19913;-62
2024/01/19 14:06:57;;;;;;;;;;;2.60;99.90;;;;;;5023413;28;20294;-62
2024/01/19 14:09:23;;;;;;;;;;;2.50;99.90;;;;;;5022807;28;20422;-62
2024/01/19 14:11:49;;;;;;;;;;;2.60;99.90;;;;;;5022785;28;19928;-62
2024/01/19 14:14:16;;;;;;;;;;;2.60;99.90;;;;;;5023414;28;19917;-62
2024/01/19 14:16:42;;;;;;;;;;;2.60;99.90;;;;;;5023299;28;19997;-62
2024/01/19 14:19:07;;;;;;;;;;;2.50;99.90;;;;;;5017757;28;20031;-62